Time;durP1;ratioP1;P1;durP2;ratioP2;P2;SDS_P1;SDS_P2;PMS_P1;PMS_P2;Temp;Humidity;BMP_temperature;BMP_pressure;BME280_temperature;BME280_humidity;BME280_pressure;Samples;Min_cycle;Max_cycle;Signal;HPM_P1;HPM_P2
2021/08/13 00:00:08;;;;;;;8.48;4.72;;;22.90;60.70;;;;;;5054801;28;20024;-62
2021/08/13 00:02:34;;;;;;;7.75;4.40;;;22.90;60.80;;;;;;5054716;28;20025;-62
2021/08/13 00:04:59;;;;;;;8.48;4.53;;;22.90;60.80;;;;;;5054625;28;20025;-62
2021/08/13 00:07:25;;;;;;;7.18;4.75;;;22.90;60.70;;;;;;5054723;28;20068;-62
2021/08/13 00:09:50;;;;;;;7.75;4.30;;;22.90;60.80;;;;;;5054691;28;20017;-62
2021/08/13 00:12:16;;;;;;;6.85;4.28;;;22.90;60.90;;;;;;5054542;28;20070;-62
2021/08/13 00:14:41;;;;;;;8.55;4.63;;;22.90;60.90;;;;;;5054574;28;20029;-62
2021/08/13 00:17:07;;;;;;;10.23;4.78;;;22.90;61.00;;;;;;5054457;28;20032;-62
2021/08/13 00:19:32;;;;;;;7.35;4.03;;;22.80;60.90;;;;;;5054534;28;20028;-62
2021/08/13 00:21:58;;;;;;;8.30;4.63;;;22.80;61.00;;;;;;5053067;28;20029;-62
2021/08/13 00:24:23;;;;;;;7.30;4.40;;;22.80;61.10;;;;;;5054424;28;20055;-62
2021/08/13 00:26:49;;;;;;;8.38;4.70;;;22.80;61.10;;;;;;5054259;28;20055;-62
2021/08/13 00:29:14;;;;;;;7.80;4.25;;;22.80;61.10;;;;;;5054177;28;20210;-62
2021/08/13 00:31:40;;;;;;;7.95;4.50;;;22.80;61.10;;;;;;5054076;28;20033;-62
2021/08/13 00:34:05;;;;;;;10.15;5.20;;;22.80;61.30;;;;;;5054292;28;20053;-62
2021/08/13 00:36:31;;;;;;;7.57;4.65;;;22.80;61.30;;;;;;5053848;28;20053;-62
2021/08/13 00:38:56;;;;;;;9.65;4.90;;;22.80;61.20;;;;;;5054137;28;20033;-63
2021/08/13 00:41:22;;;;;;;7.60;4.30;;;22.70;61.30;;;;;;5054328;28;20017;-62
2021/08/13 00:43:47;;;;;;;8.50;4.13;;;22.70;61.30;;;;;;5053979;28;20067;-62
2021/08/13 00:46:13;;;;;;;13.07;4.72;;;22.70;61.40;;;;;;5053938;28;20104;-62
2021/08/13 00:48:39;;;;;;;8.57;4.55;;;22.70;61.50;;;;;;5053784;28;20036;-62
2021/08/13 00:51:05;;;;;;;7.55;4.68;;;22.70;61.50;;;;;;5053657;28;20440;-62
2021/08/13 00:53:30;;;;;;;8.15;4.80;;;22.70;61.50;;;;;;5053709;28;20029;-62
2021/08/13 00:55:56;;;;;;;7.88;4.20;;;22.70;61.40;;;;;;5053728;28;20453;-62
2021/08/13 00:58:22;;;;;;;9.00;5.28;;;22.70;61.40;;;;;;5053792;28;20465;-62
2021/08/13 01:00:51;;;;;;;10.05;5.03;;;22.70;61.50;;;;;;5053533;28;20032;-62
2021/08/13 01:03:16;;;;;;;8.32;5.00;;;22.70;61.50;;;;;;5053486;28;20021;-62
2021/08/13 01:05:42;;;;;;;8.02;4.25;;;22.70;61.50;;;;;;5053454;28;20017;-62
2021/08/13 01:08:08;;;;;;;8.93;5.20;;;22.70;61.50;;;;;;5053348;28;20044;-62
2021/08/13 01:10:40;;;;;;;8.43;4.93;;;22.70;61.50;;;;;;5053471;28;20021;-62
2021/08/13 01:13:15;;;;;;;9.18;4.97;;;22.70;61.50;;;;;;5053385;28;20039;-62
2021/08/13 01:15:46;;;;;;;7.55;4.22;;;22.70;61.60;;;;;;5053270;28;20104;-62
2021/08/13 01:18:16;;;;;;;9.25;4.95;;;22.60;61.60;;;;;;5053311;28;20044;-62
2021/08/13 01:21:01;;;;;;;9.52;5.00;;;22.60;61.60;;;;;;5053551;28;20036;-62
2021/08/13 01:23:44;;;;;;;7.80;4.63;;;22.60;61.60;;;;;;5053217;28;20026;-62
2021/08/13 01:26:10;;;;;;;7.67;4.20;;;22.60;61.60;;;;;;5053094;28;20056;-62
2021/08/13 01:28:47;;;;;;;7.97;4.55;;;22.60;61.60;;;;;;5053102;28;20276;-62
2021/08/13 01:31:20;;;;;;;6.90;4.18;;;22.60;61.70;;;;;;5051839;28;20029;-62
2021/08/13 01:33:49;;;;;;;7.93;4.88;;;22.60;61.70;;;;;;5053369;28;20028;-62
2021/08/13 01:36:16;;;;;;;7.82;4.63;;;22.60;61.70;;;;;;5052876;28;20063;-62
2021/08/13 01:38:42;;;;;;;7.82;4.57;;;22.60;61.70;;;;;;5052989;28;20033;-62
2021/08/13 01:41:10;;;;;;;8.27;4.93;;;22.50;61.70;;;;;;5052897;28;20021;-62
2021/08/13 01:43:41;;;;;;;7.60;4.47;;;22.60;61.80;;;;;;5052932;28;20033;-62
2021/08/13 01:46:08;;;;;;;8.23;4.90;;;22.50;61.70;;;;;;5052853;28;20068;-62
2021/08/13 01:48:35;;;;;;;10.73;4.53;;;22.50;61.90;;;;;;5052885;28;20029;-62
2021/08/13 01:51:01;;;;;;;8.00;4.53;;;22.50;61.90;;;;;;5052786;28;20025;-62
2021/08/13 01:53:28;;;;;;;7.95;4.43;;;22.50;61.80;;;;;;5052864;28;20083;-62
2021/08/13 01:55:55;;;;;;;8.18;4.80;;;22.50;61.80;;;;;;5052826;28;20024;-62
2021/08/13 01:58:22;;;;;;;8.85;5.00;;;22.50;61.90;;;;;;5052792;28;20021;-62
2021/08/13 02:00:51;;;;;;;8.43;4.78;;;22.50;61.90;;;;;;5053080;28;20112;-62
2021/08/13 02:03:16;;;;;;;9.10;5.45;;;22.50;61.90;;;;;;5052222;28;20048;-62
2021/08/13 02:05:42;;;;;;;8.63;4.95;;;22.50;61.90;;;;;;5052690;28;20464;-62
2021/08/13 02:08:10;;;;;;;7.90;4.72;;;22.50;61.90;;;;;;5052576;28;20037;-62
2021/08/13 02:10:38;;;;;;;8.13;4.75;;;22.50;61.80;;;;;;5052631;28;20114;-62
2021/08/13 02:13:05;;;;;;;8.45;4.80;;;22.50;61.90;;;;;;5052678;28;20040;-62
2021/08/13 02:15:34;;;;;;;7.85;4.80;;;22.50;62.00;;;;;;5051604;28;20048;-62
2021/08/13 02:18:10;;;;;;;10.05;4.95;;;22.50;62.00;;;;;;5052535;28;20380;-62
2021/08/13 02:20:38;;;;;;;8.98;5.43;;;22.50;62.00;;;;;;5052650;28;20017;-62
2021/08/13 02:23:06;;;;;;;6.95;4.45;;;22.50;62.00;;;;;;5052761;28;20029;-62
2021/08/13 02:25:31;;;;;;;8.13;5.03;;;22.50;62.00;;;;;;5052536;28;20393;-62
2021/08/13 02:27:57;;;;;;;7.97;4.53;;;22.50;62.00;;;;;;5052562;28;20033;-62
2021/08/13 02:30:22;;;;;;;8.57;4.88;;;22.40;62.10;;;;;;5052657;28;20055;-62
2021/08/13 02:32:48;;;;;;;10.40;5.20;;;22.50;62.20;;;;;;5052405;28;20041;-63
2021/08/13 02:35:14;;;;;;;8.20;5.10;;;22.50;62.00;;;;;;5052239;28;20079;-62
2021/08/13 02:37:43;;;;;;;8.98;4.75;;;22.50;62.00;;;;;;5052380;28;20036;-62
2021/08/13 02:40:12;;;;;;;9.65;5.00;;;22.50;62.00;;;;;;5052381;28;20056;-62
2021/08/13 02:42:50;;;;;;;7.32;4.70;;;22.50;62.00;;;;;;5052317;28;20082;-62
2021/08/13 02:45:21;;;;;;;10.32;5.75;;;22.40;62.20;;;;;;5050994;28;20031;-62
2021/08/13 02:47:49;;;;;;;8.32;5.07;;;22.40;62.20;;;;;;5052232;28;20029;-62
2021/08/13 02:50:17;;;;;;;8.20;4.70;;;22.40;62.10;;;;;;5052225;28;20032;-62
2021/08/13 02:52:50;;;;;;;8.70;5.25;;;22.40;62.20;;;;;;5052305;28;20043;-62
2021/08/13 02:55:19;;;;;;;8.50;4.65;;;22.40;62.10;;;;;;5052256;28;20025;-62
2021/08/13 02:57:51;;;;;;;8.48;4.88;;;22.40;62.20;;;;;;5052150;28;20017;-62
2021/08/13 03:00:17;;;;;;;8.43;5.28;;;22.40;62.10;;;;;;5050838;28;20059;-62
2021/08/13 03:02:47;;;;;;;8.52;5.15;;;22.40;62.20;;;;;;5052375;28;20025;-62
2021/08/13 03:05:14;;;;;;;9.07;4.63;;;22.40;62.50;;;;;;5052060;28;20531;-62
2021/08/13 03:07:40;;;;;;;8.48;4.90;;;22.40;62.40;;;;;;5051985;28;20037;-62
2021/08/13 03:10:08;;;;;;;7.88;4.70;;;22.40;62.40;;;;;;5050894;28;20029;-62
2021/08/13 03:12:37;;;;;;;9.30;5.03;;;22.40;62.30;;;;;;5052109;28;20021;-62
2021/08/13 03:15:03;;;;;;;9.23;5.03;;;22.40;62.30;;;;;;5053544;28;20029;-62
2021/08/13 03:17:29;;;;;;;7.75;4.85;;;22.40;62.40;;;;;;5055436;28;20560;-62
2021/08/13 03:19:54;;;;;;;9.07;5.07;;;22.40;62.20;;;;;;5055541;28;20025;-62
2021/08/13 03:22:21;;;;;;;7.93;4.57;;;22.40;62.20;;;;;;5055461;28;20389;-62
2021/08/13 03:24:47;;;;;;;9.50;5.15;;;22.40;62.20;;;;;;5055380;28;20041;-62
2021/08/13 03:27:14;;;;;;;9.65;4.78;;;22.40;62.30;;;;;;5055258;28;20067;-62
2021/08/13 03:29:39;;;;;;;9.25;5.43;;;22.40;62.30;;;;;;5055422;28;20029;-62
2021/08/13 03:32:05;;;;;;;7.65;5.03;;;22.30;62.40;;;;;;5055314;28;20025;-62
2021/08/13 03:34:31;;;;;;;8.93;5.07;;;22.30;62.60;;;;;;5055183;28;20074;-62
2021/08/13 03:37:00;;;;;;;8.90;5.30;;;22.30;62.60;;;;;;5055090;28;20064;-62
2021/08/13 03:39:26;;;;;;;8.52;5.15;;;22.30;62.50;;;;;;5055105;28;20107;-62
2021/08/13 03:41:52;;;;;;;9.23;4.90;;;22.30;62.60;;;;;;5055147;28;20112;-62
2021/08/13 03:44:17;;;;;;;10.32;5.45;;;22.30;62.60;;;;;;5055132;28;20099;-62
2021/08/13 03:46:43;;;;;;;7.65;4.78;;;22.30;62.50;;;;;;5054969;28;20025;-62
2021/08/13 03:49:08;;;;;;;8.60;5.00;;;22.30;62.60;;;;;;5055023;28;20040;-62
2021/08/13 03:51:34;;;;;;;11.63;5.03;;;22.30;62.50;;;;;;5054928;28;20453;-62
2021/08/13 03:54:00;;;;;;;8.38;4.63;;;22.30;62.40;;;;;;5054995;28;20028;-62
2021/08/13 03:56:26;;;;;;;8.85;5.15;;;22.30;62.40;;;;;;5054855;28;20465;-62
2021/08/13 03:58:51;;;;;;;7.63;4.93;;;22.30;62.50;;;;;;5054994;28;20383;-62
2021/08/13 04:01:17;;;;;;;9.23;5.20;;;22.30;62.60;;;;;;5054765;28;20358;-62
2021/08/13 04:03:42;;;;;;;8.30;5.13;;;22.30;62.60;;;;;;5053765;28;20025;-62
2021/08/13 04:06:08;;;;;;;9.13;5.05;;;22.30;62.60;;;;;;5054553;28;20380;-62
2021/08/13 04:08:33;;;;;;;9.80;5.10;;;22.30;62.50;;;;;;5054651;28;20035;-62
2021/08/13 04:10:59;;;;;;;9.73;5.70;;;22.30;62.50;;;;;;5054558;28;20055;-63
2021/08/13 04:13:24;;;;;;;10.00;4.80;;;22.30;62.50;;;;;;5054566;28;20024;-62
2021/08/13 04:15:50;;;;;;;9.07;5.57;;;22.30;62.50;;;;;;5054489;28;20029;-62
2021/08/13 04:18:16;;;;;;;8.25;5.13;;;22.30;62.50;;;;;;5054478;28;20028;-62
2021/08/13 04:20:42;;;;;;;9.25;5.25;;;22.20;62.50;;;;;;5054400;28;20024;-61
2021/08/13 04:23:07;;;;;;;8.57;5.05;;;22.20;62.50;;;;;;5054318;28;20365;-61
2021/08/13 04:25:33;;;;;;;9.30;5.00;;;22.30;62.50;;;;;;5053812;28;20029;-61
2021/08/13 04:27:58;;;;;;;8.90;5.28;;;22.20;62.60;;;;;;5054199;28;20090;-61
2021/08/13 04:30:24;;;;;;;8.60;5.60;;;22.20;62.80;;;;;;5054195;28;20017;-61
2021/08/13 04:32:50;;;;;;;8.90;5.32;;;22.20;62.80;;;;;;5054211;28;20035;-62
2021/08/13 04:35:15;;;;;;;8.88;5.30;;;22.30;62.70;;;;;;5053952;28;20037;-61
2021/08/13 04:37:41;;;;;;;9.82;5.07;;;22.20;62.60;;;;;;5054019;28;20033;-62
2021/08/13 04:40:07;;;;;;;7.82;4.90;;;22.20;62.60;;;;;;5054010;28;20025;-61
2021/08/13 04:42:33;;;;;;;8.23;5.28;;;22.20;62.60;;;;;;5054182;28;20330;-61
2021/08/13 04:44:58;;;;;;;9.10;4.93;;;22.20;62.60;;;;;;5053849;28;20024;-61
2021/08/13 04:47:24;;;;;;;10.90;5.68;;;22.20;62.60;;;;;;5053972;28;20032;-61
2021/08/13 04:49:49;;;;;;;8.30;5.05;;;22.20;62.60;;;;;;5053721;28;20032;-61
2021/08/13 04:52:16;;;;;;;10.95;5.60;;;22.20;62.60;;;;;;5053724;28;20446;-62
2021/08/13 04:54:46;;;;;;;9.25;5.35;;;22.20;62.60;;;;;;5053689;28;20104;-61
2021/08/13 04:57:12;;;;;;;11.43;5.22;;;22.20;62.60;;;;;;5053922;28;20063;-61
2021/08/13 04:59:37;;;;;;;8.85;5.07;;;22.20;62.70;;;;;;5053603;28;20025;-61
2021/08/13 05:02:03;;;;;;;9.27;5.15;;;22.20;62.70;;;;;;5053614;28;20155;-61
2021/08/13 05:04:28;;;;;;;9.38;4.85;;;22.20;62.70;;;;;;5053558;28;20028;-61
2021/08/13 05:06:54;;;;;;;9.02;5.88;;;22.20;62.70;;;;;;5053529;28;20029;-62
2021/08/13 05:09:19;;;;;;;9.40;5.60;;;22.10;62.70;;;;;;5053480;28;20444;-61
2021/08/13 05:11:45;;;;;;;9.48;5.63;;;22.20;62.70;;;;;;5053521;28;20064;-62
2021/08/13 05:14:10;;;;;;;9.35;5.43;;;22.20;62.70;;;;;;5053600;28;20361;-61
2021/08/13 05:16:36;;;;;;;8.40;5.18;;;22.20;62.70;;;;;;5053311;28;20021;-61
2021/08/13 05:19:01;;;;;;;8.93;5.60;;;22.20;62.80;;;;;;5053313;28;20013;-61
2021/08/13 05:21:27;;;;;;;8.93;5.28;;;22.10;62.80;;;;;;5051866;28;20028;-61
2021/08/13 05:23:52;;;;;;;9.75;5.55;;;22.20;62.80;;;;;;5053068;28;20017;-61
2021/08/13 05:26:18;;;;;;;9.68;5.13;;;22.20;62.80;;;;;;5053240;28;20024;-61
2021/08/13 05:28:44;;;;;;;8.68;5.15;;;22.20;62.70;;;;;;5053256;28;20139;-61
2021/08/13 05:31:09;;;;;;;9.65;5.18;;;22.20;62.60;;;;;;5051844;28;20480;-61
2021/08/13 05:33:35;;;;;;;9.82;5.32;;;22.20;62.60;;;;;;5053140;28;20032;-61
2021/08/13 05:36:01;;;;;;;9.85;5.63;;;22.20;62.70;;;;;;5052761;28;20084;-61
2021/08/13 05:38:26;;;;;;;9.88;4.95;;;22.20;62.60;;;;;;5052288;28;20024;-61
2021/08/13 05:40:52;;;;;;;8.43;5.38;;;22.20;62.50;;;;;;5051541;28;20477;-61
2021/08/13 05:43:17;;;;;;;8.82;5.50;;;22.20;62.60;;;;;;5052852;28;20021;-61
2021/08/13 05:45:43;;;;;;;8.40;5.18;;;22.20;62.60;;;;;;5052846;28;20470;-61
2021/08/13 05:48:09;;;;;;;8.05;5.13;;;22.20;62.50;;;;;;5052626;28;20445;-61
2021/08/13 05:50:34;;;;;;;9.15;5.38;;;22.20;62.50;;;;;;5052644;28;20021;-61
2021/08/13 05:53:00;;;;;;;9.52;5.50;;;22.20;62.60;;;;;;5052913;28;20396;-61
2021/08/13 05:55:25;;;;;;;9.88;5.38;;;22.20;62.60;;;;;;5052734;28;20440;-61
2021/08/13 05:57:51;;;;;;;9.30;5.57;;;22.20;62.70;;;;;;5052802;28;20071;-61
2021/08/13 06:00:17;;;;;;;9.77;5.60;;;22.10;62.80;;;;;;5052787;28;20033;-61
2021/08/13 06:02:58;;;;;;;9.82;5.68;;;22.20;62.70;;;;;;5052637;28;20025;-61
2021/08/13 06:05:24;;;;;;;8.50;5.55;;;22.20;62.80;;;;;;5052700;28;20028;-61
2021/08/13 06:07:50;;;;;;;11.48;5.85;;;22.10;62.80;;;;;;5052445;28;20091;-61
2021/08/13 06:10:17;;;;;;;10.18;5.57;;;22.20;62.80;;;;;;5052613;28;20025;-61
2021/08/13 06:12:44;;;;;;;8.93;6.00;;;22.20;62.80;;;;;;5052563;28;20091;-61
2021/08/13 06:15:10;;;;;;;9.90;5.40;;;22.20;62.60;;;;;;5052593;28;20102;-61
2021/08/13 06:17:35;;;;;;;9.82;5.90;;;22.20;62.50;;;;;;5052347;28;20025;-62
2021/08/13 06:20:01;;;;;;;9.40;6.07;;;22.20;62.80;;;;;;5052464;28;20028;-62
2021/08/13 06:22:26;;;;;;;9.75;5.43;;;22.20;62.70;;;;;;5052449;28;20032;-62
2021/08/13 06:24:52;;;;;;;10.63;5.53;;;22.20;62.70;;;;;;5052465;28;20108;-61
2021/08/13 06:27:17;;;;;;;11.73;5.70;;;22.20;62.90;;;;;;5051126;28;20052;-62
2021/08/13 06:29:43;;;;;;;10.23;5.78;;;22.20;62.80;;;;;;5052494;28;20043;-62
2021/08/13 06:32:08;;;;;;;8.23;5.05;;;22.20;62.60;;;;;;5052308;28;20464;-62
2021/08/13 06:34:34;;;;;;;9.90;5.78;;;22.20;62.40;;;;;;5052385;28;20026;-63
2021/08/13 06:36:59;;;;;;;10.18;5.70;;;22.30;62.60;;;;;;5052253;28;20057;-63
2021/08/13 06:39:25;;;;;;;8.85;5.28;;;22.20;62.50;;;;;;5052349;28;20025;-63
2021/08/13 06:41:51;;;;;;;9.20;5.22;;;22.20;62.40;;;;;;5052322;28;20017;-63
2021/08/13 06:44:16;;;;;;;9.93;5.40;;;22.20;62.30;;;;;;5052521;28;20032;-63
2021/08/13 06:46:42;;;;;;;11.20;5.68;;;22.20;62.30;;;;;;5052054;28;20075;-63
2021/08/13 06:49:07;;;;;;;9.95;5.82;;;22.30;62.30;;;;;;5054025;28;20075;-63
2021/08/13 06:51:33;;;;;;;9.30;5.30;;;22.30;62.30;;;;;;5054897;28;20025;-63
2021/08/13 06:53:58;;;;;;;8.48;5.13;;;22.30;62.30;;;;;;5055886;28;20388;-63
2021/08/13 06:56:24;;;;;;;9.48;5.53;;;22.30;62.30;;;;;;5055951;28;20025;-63
2021/08/13 06:58:49;;;;;;;10.18;5.85;;;22.30;62.30;;;;;;5055916;28;20033;-63
2021/08/13 07:01:15;;;;;;;11.43;6.10;;;22.30;62.30;;;;;;5056008;28;20469;-63
2021/08/13 07:03:40;;;;;;;8.95;5.60;;;22.30;62.40;;;;;;5055743;28;20087;-63
2021/08/13 07:06:06;;;;;;;9.93;6.05;;;22.30;62.30;;;;;;5055683;28;20103;-63
2021/08/13 07:08:31;;;;;;;10.43;5.93;;;22.30;62.30;;;;;;5055540;28;20033;-63
2021/08/13 07:10:57;;;;;;;10.15;6.18;;;22.30;62.30;;;;;;5055640;28;20027;-63
2021/08/13 07:13:22;;;;;;;10.80;6.25;;;22.30;62.30;;;;;;5055506;28;20021;-63
2021/08/13 07:15:48;;;;;;;11.20;5.65;;;22.30;62.40;;;;;;5055416;28;20025;-63
2021/08/13 07:18:13;;;;;;;9.20;5.80;;;22.30;62.40;;;;;;5055800;28;20556;-63
2021/08/13 07:20:39;;;;;;;10.70;6.20;;;22.40;62.50;;;;;;5055338;28;20021;-62
2021/08/13 07:23:04;;;;;;;10.05;5.30;;;22.40;62.30;;;;;;5055431;28;20026;-63
2021/08/13 07:25:30;;;;;;;9.85;5.57;;;22.40;62.40;;;;;;5055386;28;20044;-63
2021/08/13 07:27:55;;;;;;;9.90;6.30;;;22.40;62.40;;;;;;5055367;28;20124;-63
2021/08/13 07:30:21;;;;;;;10.52;6.28;;;22.40;62.50;;;;;;5055239;28;20092;-63
2021/08/13 07:32:46;;;;;;;10.55;6.60;;;22.40;62.50;;;;;;5055214;28;20035;-63
2021/08/13 07:35:13;;;;;;;10.95;6.13;;;22.40;62.50;;;;;;5055026;28;20045;-63
2021/08/13 07:37:39;;;;;;;12.38;6.18;;;22.40;62.60;;;;;;5055257;28;20025;-63
2021/08/13 07:40:05;;;;;;;9.85;6.18;;;22.40;62.60;;;;;;5055268;28;20033;-63
2021/08/13 07:42:33;;;;;;;11.30;6.53;;;22.40;62.70;;;;;;5055114;28;20063;-63
2021/08/13 07:44:59;;;;;;;11.93;6.82;;;22.40;62.90;;;;;;5055021;28;20075;-63
2021/08/13 07:47:25;;;;;;;13.13;6.68;;;22.40;62.80;;;;;;5055057;28;20037;-63
2021/08/13 07:49:51;;;;;;;10.98;6.43;;;22.40;62.80;;;;;;5054885;28;20538;-63
2021/08/13 07:52:16;;;;;;;12.00;6.22;;;22.40;62.90;;;;;;5054974;28;20475;-63
2021/08/13 07:54:42;;;;;;;10.68;6.40;;;22.50;62.90;;;;;;5054759;28;20029;-63
2021/08/13 07:57:07;;;;;;;10.57;6.85;;;22.50;62.90;;;;;;5054873;28;20029;-63
2021/08/13 07:59:34;;;;;;;12.77;6.25;;;22.50;62.90;;;;;;5054570;28;20025;-63
2021/08/13 08:02:00;;;;;;;10.63;6.75;;;22.50;63.10;;;;;;5054136;28;20369;-63
2021/08/13 08:04:25;;;;;;;12.23;7.55;;;22.50;63.00;;;;;;5053456;28;20024;-63
2021/08/13 08:06:55;;;;;;;10.10;6.72;;;22.50;63.20;;;;;;5054916;28;20060;-63
2021/08/13 08:09:21;;;;;;;9.45;6.20;;;22.50;63.00;;;;;;5054658;28;20028;-63
2021/08/13 08:11:47;;;;;;;9.65;6.10;;;22.50;63.40;;;;;;5054864;28;20029;-63
2021/08/13 08:14:12;;;;;;;11.02;6.00;;;22.50;63.20;;;;;;5054694;28;20029;-63
2021/08/13 08:16:38;;;;;;;13.15;6.85;;;22.50;63.30;;;;;;5054547;28;20025;-63
2021/08/13 08:19:04;;;;;;;10.00;6.32;;;22.50;63.30;;;;;;5054457;28;20464;-63
2021/08/13 08:21:29;;;;;;;11.95;6.10;;;22.50;63.30;;;;;;5054430;28;20453;-63
2021/08/13 08:23:55;;;;;;;10.02;6.82;;;22.50;63.40;;;;;;5054353;28;20040;-63
2021/08/13 08:26:20;;;;;;;11.13;5.93;;;22.50;63.30;;;;;;5054279;28;20037;-63
2021/08/13 08:28:46;;;;;;;12.65;6.88;;;22.50;63.40;;;;;;5054266;28;20125;-62
2021/08/13 08:31:12;;;;;;;10.70;6.50;;;22.50;63.50;;;;;;5054233;28;20111;-64
2021/08/13 08:33:38;;;;;;;10.57;6.13;;;22.50;63.50;;;;;;5054424;28;20028;-63
2021/08/13 08:36:03;;;;;;;13.07;7.68;;;22.50;63.50;;;;;;5053994;28;20044;-63
2021/08/13 08:38:29;;;;;;;13.20;7.28;;;22.50;63.60;;;;;;5054077;28;20567;-64
2021/08/13 08:40:55;;;;;;;16.50;8.45;;;22.60;63.70;;;;;;5052612;28;20025;-63
2021/08/13 08:43:20;;;;;;;15.15;8.18;;;22.60;63.50;;;;;;5053991;28;20468;-63
2021/08/13 08:45:46;;;;;;;12.68;7.78;;;22.60;63.80;;;;;;5052643;28;20033;-64
2021/08/13 08:48:12;;;;;;;16.85;8.98;;;22.60;63.90;;;;;;5053695;28;20044;-64
2021/08/13 08:50:41;;;;;;;15.25;8.80;;;22.60;64.10;;;;;;5053872;28;20040;-63
2021/08/13 08:53:20;;;;;;;14.10;7.97;;;22.60;64.00;;;;;;5053669;28;20017;-63
2021/08/13 08:55:46;;;;;;;14.65;8.23;;;22.70;64.00;;;;;;5053772;28;20025;-63
2021/08/13 08:58:12;;;;;;;14.80;8.85;;;22.60;63.90;;;;;;5053538;28;20040;-63
2021/08/13 09:00:38;;;;;;;12.13;7.80;;;22.60;63.90;;;;;;5053719;28;20025;-63
2021/08/13 09:03:04;;;;;;;16.40;8.05;;;22.70;63.80;;;;;;5053588;28;20021;-63
2021/08/13 09:05:30;;;;;;;15.32;8.25;;;22.70;63.80;;;;;;5053553;28;20025;-63
2021/08/13 09:07:55;;;;;;;16.42;9.82;;;22.70;64.00;;;;;;5053510;28;20163;-63
2021/08/13 09:10:21;;;;;;;15.30;8.70;;;22.70;64.10;;;;;;5053463;28;20033;-63
2021/08/13 09:12:50;;;;;;;15.95;9.57;;;22.70;64.20;;;;;;5053322;28;20060;-63
2021/08/13 09:15:29;;;;;;;14.27;9.00;;;22.70;64.20;;;;;;5053393;28;20105;-63
2021/08/13 09:18:15;;;;;;;16.25;8.15;;;22.70;64.20;;;;;;5053287;28;20025;-63
2021/08/13 09:20:52;;;;;;;13.88;8.93;;;22.70;64.10;;;;;;5053179;28;20053;-63
2021/08/13 09:23:33;;;;;;;15.65;9.65;;;22.70;64.20;;;;;;5053298;28;20052;-63
2021/08/13 09:26:20;;;;;;;15.93;9.70;;;22.70;64.10;;;;;;5053241;28;20075;-64
2021/08/13 09:28:53;;;;;;;15.00;10.25;;;22.80;64.40;;;;;;5053215;28;20040;-63
2021/08/13 09:31:39;;;;;;;17.45;10.27;;;22.80;64.60;;;;;;5053093;28;20024;-63
2021/08/13 09:34:12;;;;;;;17.50;10.35;;;22.80;64.40;;;;;;5053065;28;20033;-63
2021/08/13 09:36:53;;;;;;;13.25;9.40;;;22.80;64.40;;;;;;5052973;28;20459;-63
2021/08/13 09:39:32;;;;;;;17.25;9.88;;;22.80;64.40;;;;;;5053409;28;20376;-61
2021/08/13 09:42:00;;;;;;;17.58;10.60;;;22.80;64.50;;;;;;5052921;28;20407;-62
2021/08/13 09:44:27;;;;;;;14.90;9.63;;;22.80;64.20;;;;;;5052908;28;20025;-62
2021/08/13 09:46:58;;;;;;;15.55;9.25;;;22.80;64.30;;;;;;5051779;28;20482;-62
2021/08/13 09:49:25;;;;;;;15.18;9.77;;;22.90;64.30;;;;;;5052682;28;20427;-62
2021/08/13 09:51:51;;;;;;;14.73;9.40;;;22.90;64.20;;;;;;5052720;28;20056;-62
2021/08/13 09:54:16;;;;;;;15.45;9.90;;;22.90;64.20;;;;;;5052523;28;20017;-62
2021/08/13 09:56:42;;;;;;;15.20;9.82;;;22.90;64.10;;;;;;5052544;28;20372;-62
2021/08/13 09:59:20;;;;;;;15.70;10.48;;;22.90;64.10;;;;;;5052858;28;20033;-62
2021/08/13 10:01:47;;;;;;;17.60;10.35;;;22.90;64.00;;;;;;5052998;28;20056;-62
2021/08/13 10:04:16;;;;;;;15.63;9.77;;;22.90;64.10;;;;;;5052857;28;20025;-62
2021/08/13 10:06:43;;;;;;;16.30;10.02;;;22.90;64.10;;;;;;5056652;28;20478;-62
2021/08/13 10:09:26;;;;;;;15.00;9.88;;;22.90;63.90;;;;;;5052710;28;20029;-62
2021/08/13 10:12:01;;;;;;;16.52;9.10;;;22.90;64.00;;;;;;5052745;28;20508;-62
2021/08/13 10:14:40;;;;;;;15.50;9.45;;;23.00;63.90;;;;;;5053238;28;20021;-62
2021/08/13 10:17:13;;;;;;;12.95;8.75;;;23.00;63.90;;;;;;5052608;28;20112;-63
2021/08/13 10:19:47;;;;;;;13.88;9.10;;;22.90;63.70;;;;;;5052698;28;20028;-62
2021/08/13 10:22:15;;;;;;;15.07;8.63;;;23.00;63.50;;;;;;5052236;28;20017;-63
2021/08/13 10:24:43;;;;;;;13.45;8.48;;;23.00;63.40;;;;;;5055229;28;20512;-62
2021/08/13 10:27:10;;;;;;;13.25;7.90;;;23.00;63.40;;;;;;5056317;28;20037;-62
2021/08/13 10:29:36;;;;;;;11.30;7.68;;;23.00;63.50;;;;;;5056184;28;20029;-62
2021/08/13 10:32:01;;;;;;;12.82;7.85;;;23.00;63.40;;;;;;5056388;28;20151;-62
2021/08/13 10:34:28;;;;;;;13.75;8.35;;;23.10;63.20;;;;;;5056839;28;20477;-62
2021/08/13 10:36:55;;;;;;;12.43;7.72;;;23.00;63.00;;;;;;5061768;28;20056;-62
2021/08/13 10:39:22;;;;;;;11.88;7.20;;;23.00;63.00;;;;;;5056708;28;20021;-62
2021/08/13 10:41:52;;;;;;;12.65;7.13;;;23.00;62.90;;;;;;5055116;28;20034;-62
2021/08/13 10:44:19;;;;;;;15.23;7.30;;;23.10;62.70;;;;;;5056404;28;20028;-62
2021/08/13 10:46:46;;;;;;;11.27;7.28;;;23.10;62.60;;;;;;5056263;28;20025;-62
2021/08/13 10:49:14;;;;;;;10.07;6.30;;;23.10;62.50;;;;;;5056100;28;20037;-62
2021/08/13 10:51:40;;;;;;;11.13;6.75;;;23.10;62.50;;;;;;5055851;28;20021;-62
2021/08/13 10:54:19;;;;;;;9.85;6.60;;;23.10;62.50;;;;;;5056052;28;20052;-62
2021/08/13 10:56:48;;;;;;;10.98;5.75;;;23.10;62.40;;;;;;5055767;28;20376;-62
2021/08/13 10:59:39;;;;;;;10.10;5.68;;;23.10;62.40;;;;;;5056157;28;20036;-62
2021/08/13 11:02:14;;;;;;;11.43;6.20;;;23.20;62.40;;;;;;5055880;28;20427;-62
2021/08/13 11:04:42;;;;;;;10.85;6.07;;;23.20;62.40;;;;;;5055665;28;20029;-62
2021/08/13 11:07:07;;;;;;;11.27;6.80;;;23.20;62.20;;;;;;5054265;28;20507;-62
2021/08/13 11:09:35;;;;;;;10.02;5.70;;;23.20;62.10;;;;;;5054408;28;20029;-62
2021/08/13 11:12:04;;;;;;;9.82;5.90;;;23.20;61.80;;;;;;5055899;28;20029;-62
2021/08/13 11:14:49;;;;;;;10.32;5.80;;;23.30;61.90;;;;;;5055588;28;20373;-62
2021/08/13 11:17:33;;;;;;;9.75;5.72;;;23.20;62.00;;;;;;5055437;28;20072;-62
2021/08/13 11:20:01;;;;;;;10.67;5.80;;;23.20;61.90;;;;;;5055555;28;20033;-62
2021/08/13 11:22:32;;;;;;;10.40;5.35;;;23.30;61.90;;;;;;5055306;28;20510;-62
2021/08/13 11:24:58;;;;;;;9.82;5.53;;;23.30;61.60;;;;;;5055271;28;20025;-62
2021/08/13 11:27:23;;;;;;;10.13;4.65;;;23.30;61.60;;;;;;5055213;28;20044;-62
2021/08/13 11:29:49;;;;;;;10.23;5.15;;;23.30;61.70;;;;;;5055444;28;20021;-62
2021/08/13 11:32:14;;;;;;;8.75;5.13;;;23.30;61.70;;;;;;5055226;28;20048;-62
2021/08/13 11:34:50;;;;;;;9.25;5.22;;;23.30;61.60;;;;;;5054568;28;20032;-64
2021/08/13 11:37:30;;;;;;;10.27;4.97;;;23.40;61.60;;;;;;5055105;28;20041;-63
2021/08/13 11:40:06;;;;;;;8.90;5.03;;;23.40;61.50;;;;;;5055184;28;20025;-64
2021/08/13 11:42:33;;;;;;;10.38;4.97;;;23.50;61.20;;;;;;5055176;28;20100;-63
2021/08/13 11:45:08;;;;;;;7.65;4.57;;;23.40;61.30;;;;;;5055020;28;20100;-63
2021/08/13 11:47:35;;;;;;;7.80;4.15;;;23.40;61.30;;;;;;5054911;28;20075;-63
2021/08/13 11:50:08;;;;;;;8.73;4.82;;;23.40;61.40;;;;;;5055219;28;20051;-62
2021/08/13 11:52:36;;;;;;;8.50;4.35;;;23.40;61.40;;;;;;5054944;28;20504;-61
2021/08/13 11:55:20;;;;;;;9.10;4.95;;;23.40;61.40;;;;;;5054990;28;20111;-62
2021/08/13 11:57:46;;;;;;;9.93;4.90;;;23.50;61.30;;;;;;5055171;28;20089;-62
2021/08/13 12:00:20;;;;;;;9.38;4.55;;;23.50;61.20;;;;;;5054733;28;20408;-62
2021/08/13 12:02:45;;;;;;;6.93;3.78;;;23.50;61.10;;;;;;5054663;28;20154;-62
2021/08/13 12:05:12;;;;;;;12.38;4.93;;;23.60;60.90;;;;;;5055014;28;20029;-62
2021/08/13 12:07:39;;;;;;;7.72;4.43;;;23.60;60.90;;;;;;5054567;28;20037;-62
2021/08/13 12:10:14;;;;;;;8.98;3.80;;;23.60;60.70;;;;;;5054686;28;20092;-62
2021/08/13 12:12:41;;;;;;;7.95;4.10;;;23.60;60.80;;;;;;5054567;28;20033;-63
2021/08/13 12:15:07;;;;;;;8.05;3.63;;;23.60;60.70;;;;;;5054654;28;20111;-62
2021/08/13 12:17:33;;;;;;;7.80;4.07;;;23.60;60.70;;;;;;5054698;28;20048;-63
2021/08/13 12:20:03;;;;;;;7.18;3.85;;;23.60;60.70;;;;;;5054587;28;20473;-62
2021/08/13 12:22:34;;;;;;;8.00;3.63;;;23.70;60.50;;;;;;5054367;28;20424;-62
2021/08/13 12:25:00;;;;;;;6.82;3.88;;;23.60;60.50;;;;;;5054444;28;20036;-63
2021/08/13 12:27:28;;;;;;;7.60;3.40;;;23.70;60.40;;;;;;5054299;28;20068;-62
2021/08/13 12:29:54;;;;;;;6.25;3.40;;;23.70;60.50;;;;;;5054448;28;20025;-62
2021/08/13 12:32:20;;;;;;;6.65;3.50;;;23.70;60.50;;;;;;5054279;28;20036;-63
2021/08/13 12:34:52;;;;;;;5.63;3.40;;;23.80;60.10;;;;;;5053836;28;20021;-62
2021/08/13 12:37:20;;;;;;;7.10;3.47;;;23.80;60.10;;;;;;5054546;28;20033;-62
2021/08/13 12:39:48;;;;;;;6.43;3.67;;;23.80;60.30;;;;;;5053123;28;20129;-62
2021/08/13 12:42:15;;;;;;;7.68;3.00;;;23.80;60.30;;;;;;5054107;28;20021;-63
2021/08/13 12:44:42;;;;;;;6.80;3.53;;;23.80;60.10;;;;;;5055058;28;20040;-62